sensor_id;sensor_type;location;lat;lon;timestamp;temperature;humidity
16263;DHT22;8239;48.594;8.598;2022-07-12T00:00:35;11.10;99.90
16263;DHT22;8239;48.594;8.598;2022-07-12T00:03:02;11.20;99.90
16263;DHT22;8239;48.594;8.598;2022-07-12T00:05:29;11.10;99.90
16263;DHT22;8239;48.594;8.598;2022-07-12T00:07:56;11.00;99.90
16263;DHT22;8239;48.594;8.598;2022-07-12T00:10:23;11.00;99.90
16263;DHT22;8239;48.594;8.598;2022-07-12T00:12:50;11.10;99.90
16263;DHT22;8239;48.594;8.598;2022-07-12T00:15:17;11.00;99.90
16263;DHT22;8239;48.594;8.598;2022-07-12T00:17:45;11.00;99.90
16263;DHT22;8239;48.594;8.598;2022-07-12T00:20:12;11.00;99.90
16263;DHT22;8239;48.594;8.598;2022-07-12T00:22:39;10.90;99.90
16263;DHT22;8239;48.594;8.598;2022-07-12T00:25:07;10.80;99.90
16263;DHT22;8239;48.594;8.598;2022-07-12T00:27:35;10.90;99.90
16263;DHT22;8239;48.594;8.598;2022-07-12T00:30:02;10.80;99.90
16263;DHT22;8239;48.594;8.598;2022-07-12T00:32:29;10.70;99.90
16263;DHT22;8239;48.594;8.598;2022-07-12T00:34:57;10.80;99.90
16263;DHT22;8239;48.594;8.598;2022-07-12T00:37:24;10.70;99.90
16263;DHT22;8239;48.594;8.598;2022-07-12T00:39:51;10.70;99.90
16263;DHT22;8239;48.594;8.598;2022-07-12T00:42:18;10.70;99.90
16263;DHT22;8239;48.594;8.598;2022-07-12T00:44:45;10.60;99.90
16263;DHT22;8239;48.594;8.598;2022-07-12T00:47:23;10.60;99.90
16263;DHT22;8239;48.594;8.598;2022-07-12T00:49:52;10.60;99.90
16263;DHT22;8239;48.594;8.598;2022-07-12T00:52:20;10.50;99.90
16263;DHT22;8239;48.594;8.598;2022-07-12T00:54:47;10.50;99.90
16263;DHT22;8239;48.594;8.598;2022-07-12T00:57:14;10.50;99.90
16263;DHT22;8239;48.594;8.598;2022-07-12T00:59:42;10.50;99.90
16263;DHT22;8239;48.594;8.598;2022-07-12T01:02:08;10.50;99.90
16263;DHT22;8239;48.594;8.598;2022-07-12T01:04:36;10.40;99.90
16263;DHT22;8239;48.594;8.598;2022-07-12T01:07:04;10.40;99.90
16263;DHT22;8239;48.594;8.598;2022-07-12T01:09:32;10.40;99.90
16263;DHT22;8239;48.594;8.598;2022-07-12T01:12:00;10.40;99.90
16263;DHT22;8239;48.594;8.598;2022-07-12T01:14:27;10.30;99.90
16263;DHT22;8239;48.594;8.598;2022-07-12T01:16:55;10.30;99.90
16263;DHT22;8239;48.594;8.598;2022-07-12T01:19:23;10.30;99.90
16263;DHT22;8239;48.594;8.598;2022-07-12T01:21:51;10.30;99.90
16263;DHT22;8239;48.594;8.598;2022-07-12T01:24:21;10.30;99.90
16263;DHT22;8239;48.594;8.598;2022-07-12T01:26:50;10.30;99.90
16263;DHT22;8239;48.594;8.598;2022-07-12T01:29:18;10.30;99.90
16263;DHT22;8239;48.594;8.598;2022-07-12T01:31:45;10.20;99.90
16263;DHT22;8239;48.594;8.598;2022-07-12T01:34:13;10.20;99.90
16263;DHT22;8239;48.594;8.598;2022-07-12T01:36:41;10.20;99.90
16263;DHT22;8239;48.594;8.598;2022-07-12T01:39:08;10.10;99.90
16263;DHT22;8239;48.594;8.598;2022-07-12T01:41:36;10.10;99.90
16263;DHT22;8239;48.594;8.598;2022-07-12T01:44:04;10.10;99.90
16263;DHT22;8239;48.594;8.598;2022-07-12T01:46:32;10.10;99.90
16263;DHT22;8239;48.594;8.598;2022-07-12T01:48:59;10.10;99.90
16263;DHT22;8239;48.594;8.598;2022-07-12T01:51:27;10.00;99.90
16263;DHT22;8239;48.594;8.598;2022-07-12T01:53:54;10.00;99.90
16263;DHT22;8239;48.594;8.598;2022-07-12T01:56:21;10.00;99.90
16263;DHT22;8239;48.594;8.598;2022-07-12T01:58:49;9.90;99.90
16263;DHT22;8239;48.594;8.598;2022-07-12T02:01:16;9.90;99.90
16263;DHT22;8239;48.594;8.598;2022-07-12T02:03:43;9.90;99.90
16263;DHT22;8239;48.594;8.598;2022-07-12T02:06:10;9.90;99.90
16263;DHT22;8239;48.594;8.598;2022-07-12T02:08:41;9.90;99.90
16263;DHT22;8239;48.594;8.598;2022-07-12T02:11:08;9.90;99.90
16263;DHT22;8239;48.594;8.598;2022-07-12T02:13:35;9.90;99.90
16263;DHT22;8239;48.594;8.598;2022-07-12T02:16:04;9.90;99.90
16263;DHT22;8239;48.594;8.598;2022-07-12T02:18:32;9.90;99.90
16263;DHT22;8239;48.594;8.598;2022-07-12T02:20:59;9.80;99.90
16263;DHT22;8239;48.594;8.598;2022-07-12T02:23:27;9.80;99.90
16263;DHT22;8239;48.594;8.598;2022-07-12T02:25:54;9.80;99.90
16263;DHT22;8239;48.594;8.598;2022-07-12T02:28:21;9.80;99.90
16263;DHT22;8239;48.594;8.598;2022-07-12T02:30:48;9.80;99.90
16263;DHT22;8239;48.594;8.598;2022-07-12T02:33:16;9.80;99.90
16263;DHT22;8239;48.594;8.598;2022-07-12T02:35:45;9.80;99.90
16263;DHT22;8239;48.594;8.598;2022-07-12T02:38:12;9.70;99.90
16263;DHT22;8239;48.594;8.598;2022-07-12T02:40:39;9.70;99.90
16263;DHT22;8239;48.594;8.598;2022-07-12T02:43:21;9.70;99.90
16263;DHT22;8239;48.594;8.598;2022-07-12T02:45:49;9.70;99.90
16263;DHT22;8239;48.594;8.598;2022-07-12T02:48:18;9.60;99.90
16263;DHT22;8239;48.594;8.598;2022-07-12T02:50:45;9.60;99.90
16263;DHT22;8239;48.594;8.598;2022-07-12T02:53:12;9.60;99.90
16263;DHT22;8239;48.594;8.598;2022-07-12T02:55:40;9.60;99.90
16263;DHT22;8239;48.594;8.598;2022-07-12T02:58:07;9.60;99.90
16263;DHT22;8239;48.594;8.598;2022-07-12T03:00:34;9.60;99.90
16263;DHT22;8239;48.594;8.598;2022-07-12T03:03:02;9.60;99.90
16263;DHT22;8239;48.594;8.598;2022-07-12T03:05:31;9.60;99.90
16263;DHT22;8239;48.594;8.598;2022-07-12T03:07:58;9.70;99.90
16263;DHT22;8239;48.594;8.598;2022-07-12T03:10:26;9.70;99.90
16263;DHT22;8239;48.594;8.598;2022-07-12T03:12:53;9.80;99.90
16263;DHT22;8239;48.594;8.598;2022-07-12T03:15:20;9.80;99.90
16263;DHT22;8239;48.594;8.598;2022-07-12T03:17:47;9.80;99.90
16263;DHT22;8239;48.594;8.598;2022-07-12T03:20:14;9.90;99.90
16263;DHT22;8239;48.594;8.598;2022-07-12T03:22:43;9.90;99.90
16263;DHT22;8239;48.594;8.598;2022-07-12T03:25:12;9.90;99.90
16263;DHT22;8239;48.594;8.598;2022-07-12T03:27:39;9.90;99.90
16263;DHT22;8239;48.594;8.598;2022-07-12T03:30:07;10.00;99.90
16263;DHT22;8239;48.594;8.598;2022-07-12T03:32:35;9.90;99.90
16263;DHT22;8239;48.594;8.598;2022-07-12T03:35:02;9.90;99.90
16263;DHT22;8239;48.594;8.598;2022-07-12T03:37:43;9.90;99.90
16263;DHT22;8239;48.594;8.598;2022-07-12T03:40:11;9.80;99.90
16263;DHT22;8239;48.594;8.598;2022-07-12T03:42:39;9.80;99.90
16263;DHT22;8239;48.594;8.598;2022-07-12T03:45:06;9.80;99.90
16263;DHT22;8239;48.594;8.598;2022-07-12T03:47:33;9.80;99.90
16263;DHT22;8239;48.594;8.598;2022-07-12T03:50:02;9.80;99.90
16263;DHT22;8239;48.594;8.598;2022-07-12T03:52:30;9.80;99.90
16263;DHT22;8239;48.594;8.598;2022-07-12T03:54:59;9.80;99.90
16263;DHT22;8239;48.594;8.598;2022-07-12T03:57:27;9.80;99.90
16263;DHT22;8239;48.594;8.598;2022-07-12T03:59:55;9.80;99.90
16263;DHT22;8239;48.594;8.598;2022-07-12T04:02:23;9.80;99.90
16263;DHT22;8239;48.594;8.598;2022-07-12T04:04:50;9.80;99.90
16263;DHT22;8239;48.594;8.598;2022-07-12T04:07:17;9.80;99.90
16263;DHT22;8239;48.594;8.598;2022-07-12T04:09:44;9.80;99.90
16263;DHT22;8239;48.594;8.598;2022-07-12T04:12:13;9.90;99.90
16263;DHT22;8239;48.594;8.598;2022-07-12T04:14:40;9.90;99.90
16263;DHT22;8239;48.594;8.598;2022-07-12T04:17:07;9.90;99.90
16263;DHT22;8239;48.594;8.598;2022-07-12T04:19:34;9.90;99.90
16263;DHT22;8239;48.594;8.598;2022-07-12T04:22:01;10.00;99.90
16263;DHT22;8239;48.594;8.598;2022-07-12T04:24:28;10.00;99.90
16263;DHT22;8239;48.594;8.598;2022-07-12T04:26:55;10.00;99.90
16263;DHT22;8239;48.594;8.598;2022-07-12T04:29:23;10.10;99.90
16263;DHT22;8239;48.594;8.598;2022-07-12T04:31:50;10.10;99.90
16263;DHT22;8239;48.594;8.598;2022-07-12T04:34:17;10.20;99.90
16263;DHT22;8239;48.594;8.598;2022-07-12T04:36:44;10.20;99.90
16263;DHT22;8239;48.594;8.598;2022-07-12T04:39:12;10.30;99.90
16263;DHT22;8239;48.594;8.598;2022-07-12T04:41:39;10.30;99.90
16263;DHT22;8239;48.594;8.598;2022-07-12T04:44:06;10.30;99.90
16263;DHT22;8239;48.594;8.598;2022-07-12T04:46:34;10.40;99.90
16263;DHT22;8239;48.594;8.598;2022-07-12T04:49:02;10.50;99.90
16263;DHT22;8239;48.594;8.598;2022-07-12T04:51:29;10.60;99.90
16263;DHT22;8239;48.594;8.598;2022-07-12T04:53:56;10.70;99.90
16263;DHT22;8239;48.594;8.598;2022-07-12T04:56:23;10.70;99.90
16263;DHT22;8239;48.594;8.598;2022-07-12T04:58:50;10.80;99.90
16263;DHT22;8239;48.594;8.598;2022-07-12T05:01:17;10.90;99.90
16263;DHT22;8239;48.594;8.598;2022-07-12T05:03:45;11.00;99.90
16263;DHT22;8239;48.594;8.598;2022-07-12T05:06:12;11.10;99.90
16263;DHT22;8239;48.594;8.598;2022-07-12T05:08:39;11.20;99.90
16263;DHT22;8239;48.594;8.598;2022-07-12T05:11:06;11.30;99.90
16263;DHT22;8239;48.594;8.598;2022-07-12T05:13:34;11.40;99.90
16263;DHT22;8239;48.594;8.598;2022-07-12T05:16:01;11.60;99.90
16263;DHT22;8239;48.594;8.598;2022-07-12T05:18:27;11.70;99.90
16263;DHT22;8239;48.594;8.598;2022-07-12T05:20:56;11.90;99.90
16263;DHT22;8239;48.594;8.598;2022-07-12T05:23:24;12.00;99.90
16263;DHT22;8239;48.594;8.598;2022-07-12T05:25:51;12.20;99.90
16263;DHT22;8239;48.594;8.598;2022-07-12T05:28:18;12.30;99.90
16263;DHT22;8239;48.594;8.598;2022-07-12T05:30:45;12.60;99.90
16263;DHT22;8239;48.594;8.598;2022-07-12T05:33:12;12.80;99.90
16263;DHT22;8239;48.594;8.598;2022-07-12T05:35:39;12.90;99.90
16263;DHT22;8239;48.594;8.598;2022-07-12T05:38:08;13.10;99.90
16263;DHT22;8239;48.594;8.598;2022-07-12T05:40:35;13.30;99.90
16263;DHT22;8239;48.594;8.598;2022-07-12T05:43:02;13.50;99.90
16263;DHT22;8239;48.594;8.598;2022-07-12T05:45:29;13.80;99.90
16263;DHT22;8239;48.594;8.598;2022-07-12T05:47:56;14.00;99.90
16263;DHT22;8239;48.594;8.598;2022-07-12T05:50:23;14.20;99.90
16263;DHT22;8239;48.594;8.598;2022-07-12T05:52:50;14.50;99.90
16263;DHT22;8239;48.594;8.598;2022-07-12T05:55:36;14.70;99.90
16263;DHT22;8239;48.594;8.598;2022-07-12T05:58:03;14.90;99.90
16263;DHT22;8239;48.594;8.598;2022-07-12T06:00:30;15.10;99.90
16263;DHT22;8239;48.594;8.598;2022-07-12T06:02:58;15.40;99.90
16263;DHT22;8239;48.594;8.598;2022-07-12T06:05:25;15.60;99.90
16263;DHT22;8239;48.594;8.598;2022-07-12T06:07:52;15.70;99.90
16263;DHT22;8239;48.594;8.598;2022-07-12T06:10:19;15.90;99.90
16263;DHT22;8239;48.594;8.598;2022-07-12T06:12:47;16.10;99.90
16263;DHT22;8239;48.594;8.598;2022-07-12T06:15:14;16.30;99.90
16263;DHT22;8239;48.594;8.598;2022-07-12T06:17:41;16.60;99.90
16263;DHT22;8239;48.594;8.598;2022-07-12T06:20:10;16.80;99.90
16263;DHT22;8239;48.594;8.598;2022-07-12T06:22:37;17.10;99.90
16263;DHT22;8239;48.594;8.598;2022-07-12T06:25:05;17.40;99.90
16263;DHT22;8239;48.594;8.598;2022-07-12T06:27:32;17.60;99.90
16263;DHT22;8239;48.594;8.598;2022-07-12T06:30:00;17.70;99.90
16263;DHT22;8239;48.594;8.598;2022-07-12T06:32:27;17.90;99.90
16263;DHT22;8239;48.594;8.598;2022-07-12T06:34:54;18.10;99.90
16263;DHT22;8239;48.594;8.598;2022-07-12T06:37:22;18.30;99.90
16263;DHT22;8239;48.594;8.598;2022-07-12T06:39:49;18.40;99.90
16263;DHT22;8239;48.594;8.598;2022-07-12T06:42:16;18.60;99.90
16263;DHT22;8239;48.594;8.598;2022-07-12T06:44:43;18.70;99.90
16263;DHT22;8239;48.594;8.598;2022-07-12T06:47:11;18.80;99.90
16263;DHT22;8239;48.594;8.598;2022-07-12T06:49:38;18.90;99.90
16263;DHT22;8239;48.594;8.598;2022-07-12T06:52:06;19.20;99.90
16263;DHT22;8239;48.594;8.598;2022-07-12T06:54:33;19.70;99.90
16263;DHT22;8239;48.594;8.598;2022-07-12T06:57:00;20.40;98.70
16263;DHT22;8239;48.594;8.598;2022-07-12T06:59:27;21.40;97.20
16263;DHT22;8239;48.594;8.598;2022-07-12T07:01:54;22.30;93.90
16263;DHT22;8239;48.594;8.598;2022-07-12T07:04:24;22.90;88.90
16263;DHT22;8239;48.594;8.598;2022-07-12T07:06:51;23.20;83.70
16263;DHT22;8239;48.594;8.598;2022-07-12T07:09:18;23.50;80.70
16263;DHT22;8239;48.594;8.598;2022-07-12T07:11:45;23.60;78.50
16263;DHT22;8239;48.594;8.598;2022-07-12T07:14:12;23.90;79.20
16263;DHT22;8239;48.594;8.598;2022-07-12T07:16:39;24.60;78.20
16263;DHT22;8239;48.594;8.598;2022-07-12T07:19:06;25.20;75.50
16263;DHT22;8239;48.594;8.598;2022-07-12T07:21:35;25.80;73.80
16263;DHT22;8239;48.594;8.598;2022-07-12T07:24:02;26.60;70.60
16263;DHT22;8239;48.594;8.598;2022-07-12T07:26:29;27.60;67.10
16263;DHT22;8239;48.594;8.598;2022-07-12T07:28:58;28.60;62.30
16263;DHT22;8239;48.594;8.598;2022-07-12T07:31:42;29.20;58.70
16263;DHT22;8239;48.594;8.598;2022-07-12T07:34:09;28.70;55.60
16263;DHT22;8239;48.594;8.598;2022-07-12T07:36:38;28.70;54.70
16263;DHT22;8239;48.594;8.598;2022-07-12T07:39:05;28.70;55.30
16263;DHT22;8239;48.594;8.598;2022-07-12T07:41:32;28.50;55.00
16263;DHT22;8239;48.594;8.598;2022-07-12T07:43:59;27.90;55.00
16263;DHT22;8239;48.594;8.598;2022-07-12T07:46:26;28.10;54.60
16263;DHT22;8239;48.594;8.598;2022-07-12T07:48:53;28.30;54.50
16263;DHT22;8239;48.594;8.598;2022-07-12T07:51:20;28.30;55.30
16263;DHT22;8239;48.594;8.598;2022-07-12T07:53:51;28.70;54.50
16263;DHT22;8239;48.594;8.598;2022-07-12T07:56:18;29.00;53.70
16263;DHT22;8239;48.594;8.598;2022-07-12T07:58:45;29.70;52.70
16263;DHT22;8239;48.594;8.598;2022-07-12T08:01:12;29.90;51.70
16263;DHT22;8239;48.594;8.598;2022-07-12T08:03:39;30.60;50.90
16263;DHT22;8239;48.594;8.598;2022-07-12T08:06:06;31.20;48.80
16263;DHT22;8239;48.594;8.598;2022-07-12T08:08:34;31.80;48.50
16263;DHT22;8239;48.594;8.598;2022-07-12T08:11:03;32.70;46.90
16263;DHT22;8239;48.594;8.598;2022-07-12T08:13:30;32.80;45.40
16263;DHT22;8239;48.594;8.598;2022-07-12T08:15:57;32.00;44.80
16263;DHT22;8239;48.594;8.598;2022-07-12T08:18:24;31.20;45.70
16263;DHT22;8239;48.594;8.598;2022-07-12T08:20:52;30.90;46.20
16263;DHT22;8239;48.594;8.598;2022-07-12T08:23:19;30.60;46.50
16263;DHT22;8239;48.594;8.598;2022-07-12T08:25:46;30.50;48.00
16263;DHT22;8239;48.594;8.598;2022-07-12T08:28:14;30.40;46.90
16263;DHT22;8239;48.594;8.598;2022-07-12T08:30:41;30.30;46.80
16263;DHT22;8239;48.594;8.598;2022-07-12T08:33:08;29.80;48.40
16263;DHT22;8239;48.594;8.598;2022-07-12T08:35:35;30.20;48.30
16263;DHT22;8239;48.594;8.598;2022-07-12T08:38:02;30.30;46.30
16263;DHT22;8239;48.594;8.598;2022-07-12T08:40:29;30.50;46.20
16263;DHT22;8239;48.594;8.598;2022-07-12T08:42:57;30.20;46.70
16263;DHT22;8239;48.594;8.598;2022-07-12T08:45:27;30.20;47.60
16263;DHT22;8239;48.594;8.598;2022-07-12T08:47:54;30.60;47.20
16263;DHT22;8239;48.594;8.598;2022-07-12T08:50:22;31.80;45.90
16263;DHT22;8239;48.594;8.598;2022-07-12T08:52:51;32.40;42.70
16263;DHT22;8239;48.594;8.598;2022-07-12T08:55:21;32.40;42.80
16263;DHT22;8239;48.594;8.598;2022-07-12T08:57:50;32.80;41.70
16263;DHT22;8239;48.594;8.598;2022-07-12T09:00:17;33.50;42.40
16263;DHT22;8239;48.594;8.598;2022-07-12T09:02:50;34.00;41.30
16263;DHT22;8239;48.594;8.598;2022-07-12T09:05:18;34.50;39.90
16263;DHT22;8239;48.594;8.598;2022-07-12T09:07:46;35.20;39.10
16263;DHT22;8239;48.594;8.598;2022-07-12T09:10:13;36.00;38.20
16263;DHT22;8239;48.594;8.598;2022-07-12T09:12:42;35.00;36.50
16263;DHT22;8239;48.594;8.598;2022-07-12T09:15:16;35.00;37.90
16263;DHT22;8239;48.594;8.598;2022-07-12T09:17:56;34.90;36.90
16263;DHT22;8239;48.594;8.598;2022-07-12T09:20:25;34.60;37.00
16263;DHT22;8239;48.594;8.598;2022-07-12T09:22:53;34.10;37.80
16263;DHT22;8239;48.594;8.598;2022-07-12T09:25:20;33.90;38.10
16263;DHT22;8239;48.594;8.598;2022-07-12T09:27:52;34.10;38.60
16263;DHT22;8239;48.594;8.598;2022-07-12T09:30:20;34.00;38.90
16263;DHT22;8239;48.594;8.598;2022-07-12T09:32:53;34.20;37.50
16263;DHT22;8239;48.594;8.598;2022-07-12T09:35:39;34.70;36.50
16263;DHT22;8239;48.594;8.598;2022-07-12T09:38:24;35.00;36.60
16263;DHT22;8239;48.594;8.598;2022-07-12T09:40:53;35.30;35.70
16263;DHT22;8239;48.594;8.598;2022-07-12T09:43:22;34.70;36.00
16263;DHT22;8239;48.594;8.598;2022-07-12T09:45:49;34.30;36.10
16263;DHT22;8239;48.594;8.598;2022-07-12T09:48:17;34.20;37.40
16263;DHT22;8239;48.594;8.598;2022-07-12T09:50:47;34.20;37.00
16263;DHT22;8239;48.594;8.598;2022-07-12T09:53:21;34.00;36.50
16263;DHT22;8239;48.594;8.598;2022-07-12T09:55:50;34.50;35.70
16263;DHT22;8239;48.594;8.598;2022-07-12T09:58:24;33.40;36.20
16263;DHT22;8239;48.594;8.598;2022-07-12T10:00:54;32.90;37.80
16263;DHT22;8239;48.594;8.598;2022-07-12T10:03:22;32.20;39.70
16263;DHT22;8239;48.594;8.598;2022-07-12T10:05:52;31.90;38.90
16263;DHT22;8239;48.594;8.598;2022-07-12T10:08:20;31.50;39.90
16263;DHT22;8239;48.594;8.598;2022-07-12T10:10:49;31.30;40.40
16263;DHT22;8239;48.594;8.598;2022-07-12T10:13:18;30.60;41.10
16263;DHT22;8239;48.594;8.598;2022-07-12T10:15:47;30.30;42.00
16263;DHT22;8239;48.594;8.598;2022-07-12T10:18:18;30.30;42.10
16263;DHT22;8239;48.594;8.598;2022-07-12T10:20:46;30.50;42.60
16263;DHT22;8239;48.594;8.598;2022-07-12T10:23:34;30.30;42.20
16263;DHT22;8239;48.594;8.598;2022-07-12T10:29:00;29.70;44.40
16263;DHT22;8239;48.594;8.598;2022-07-12T10:31:29;29.50;44.10
16263;DHT22;8239;48.594;8.598;2022-07-12T10:34:12;29.40;44.30
16263;DHT22;8239;48.594;8.598;2022-07-12T10:37:07;29.40;43.80
16263;DHT22;8239;48.594;8.598;2022-07-12T10:39:36;29.20;44.70
16263;DHT22;8239;48.594;8.598;2022-07-12T10:42:13;29.40;44.60
16263;DHT22;8239;48.594;8.598;2022-07-12T10:44:43;29.60;44.30
16263;DHT22;8239;48.594;8.598;2022-07-12T10:47:11;29.90;45.10
16263;DHT22;8239;48.594;8.598;2022-07-12T10:49:46;30.10;43.90
16263;DHT22;8239;48.594;8.598;2022-07-12T10:52:22;30.50;43.60
16263;DHT22;8239;48.594;8.598;2022-07-12T10:55:18;30.80;42.90
16263;DHT22;8239;48.594;8.598;2022-07-12T10:57:47;31.20;41.50
16263;DHT22;8239;48.594;8.598;2022-07-12T11:00:18;31.10;41.60
16263;DHT22;8239;48.594;8.598;2022-07-12T11:02:45;30.80;41.40
16263;DHT22;8239;48.594;8.598;2022-07-12T11:05:12;30.50;42.50
16263;DHT22;8239;48.594;8.598;2022-07-12T11:07:39;30.50;42.70
16263;DHT22;8239;48.594;8.598;2022-07-12T11:10:11;30.70;42.40
16263;DHT22;8239;48.594;8.598;2022-07-12T11:12:40;30.60;42.10
16263;DHT22;8239;48.594;8.598;2022-07-12T11:15:08;31.00;42.40
16263;DHT22;8239;48.594;8.598;2022-07-12T11:17:35;31.50;42.50
16263;DHT22;8239;48.594;8.598;2022-07-12T11:20:04;32.00;41.10
16263;DHT22;8239;48.594;8.598;2022-07-12T11:22:32;32.50;39.80
16263;DHT22;8239;48.594;8.598;2022-07-12T11:24:59;32.80;38.80
16263;DHT22;8239;48.594;8.598;2022-07-12T11:27:27;33.10;37.70
16263;DHT22;8239;48.594;8.598;2022-07-12T11:29:59;33.10;37.60
16263;DHT22;8239;48.594;8.598;2022-07-12T11:32:34;32.40;38.90
16263;DHT22;8239;48.594;8.598;2022-07-12T11:35:02;31.60;39.70
16263;DHT22;8239;48.594;8.598;2022-07-12T11:37:30;31.40;40.60
16263;DHT22;8239;48.594;8.598;2022-07-12T11:39:57;31.20;41.30
16263;DHT22;8239;48.594;8.598;2022-07-12T11:42:24;31.00;39.90
16263;DHT22;8239;48.594;8.598;2022-07-12T11:44:51;30.40;40.50
16263;DHT22;8239;48.594;8.598;2022-07-12T11:47:22;30.30;40.40
16263;DHT22;8239;48.594;8.598;2022-07-12T11:49:51;30.20;41.70
16263;DHT22;8239;48.594;8.598;2022-07-12T11:52:19;30.20;41.80
16263;DHT22;8239;48.594;8.598;2022-07-12T11:54:49;30.60;41.30
16263;DHT22;8239;48.594;8.598;2022-07-12T11:57:20;31.10;40.20
16263;DHT22;8239;48.594;8.598;2022-07-12T11:59:48;31.00;39.90
16263;DHT22;8239;48.594;8.598;2022-07-12T12:02:15;30.90;39.70
16263;DHT22;8239;48.594;8.598;2022-07-12T12:04:46;30.70;40.50
16263;DHT22;8239;48.594;8.598;2022-07-12T12:07:13;30.90;39.20
16263;DHT22;8239;48.594;8.598;2022-07-12T12:10:10;31.00;38.90
16263;DHT22;8239;48.594;8.598;2022-07-12T12:12:42;31.00;37.70
16263;DHT22;8239;48.594;8.598;2022-07-12T12:15:11;31.30;38.50
16263;DHT22;8239;48.594;8.598;2022-07-12T12:17:43;31.40;37.20
16263;DHT22;8239;48.594;8.598;2022-07-12T12:20:15;31.40;37.30
16263;DHT22;8239;48.594;8.598;2022-07-12T12:22:44;31.60;38.00
16263;DHT22;8239;48.594;8.598;2022-07-12T12:25:11;31.60;38.10
16263;DHT22;8239;48.594;8.598;2022-07-12T12:27:42;31.70;38.40
16263;DHT22;8239;48.594;8.598;2022-07-12T12:30:10;31.40;37.20
16263;DHT22;8239;48.594;8.598;2022-07-12T12:32:45;31.00;37.20
16263;DHT22;8239;48.594;8.598;2022-07-12T12:35:15;30.40;37.50
16263;DHT22;8239;48.594;8.598;2022-07-12T12:37:53;30.10;38.60
16263;DHT22;8239;48.594;8.598;2022-07-12T12:40:22;30.40;38.50
16263;DHT22;8239;48.594;8.598;2022-07-12T12:42:49;30.40;39.20
16263;DHT22;8239;48.594;8.598;2022-07-12T12:45:21;30.40;38.70
16263;DHT22;8239;48.594;8.598;2022-07-12T12:47:56;30.50;38.70
16263;DHT22;8239;48.594;8.598;2022-07-12T12:50:38;30.40;39.00
16263;DHT22;8239;48.594;8.598;2022-07-12T12:53:12;30.30;38.90
16263;DHT22;8239;48.594;8.598;2022-07-12T12:55:40;30.60;39.50
16263;DHT22;8239;48.594;8.598;2022-07-12T12:58:08;30.50;39.20
16263;DHT22;8239;48.594;8.598;2022-07-12T13:00:36;30.70;39.40
16263;DHT22;8239;48.594;8.598;2022-07-12T13:03:05;30.70;37.60
16263;DHT22;8239;48.594;8.598;2022-07-12T13:05:32;30.90;37.40
16263;DHT22;8239;48.594;8.598;2022-07-12T13:08:01;31.10;37.10
16263;DHT22;8239;48.594;8.598;2022-07-12T13:10:29;31.30;37.30
16263;DHT22;8239;48.594;8.598;2022-07-12T13:12:57;31.40;36.00
16263;DHT22;8239;48.594;8.598;2022-07-12T13:15:25;31.40;36.30
16263;DHT22;8239;48.594;8.598;2022-07-12T13:17:52;31.00;35.70
16263;DHT22;8239;48.594;8.598;2022-07-12T13:20:20;30.70;36.40
16263;DHT22;8239;48.594;8.598;2022-07-12T13:22:47;30.10;37.20
16263;DHT22;8239;48.594;8.598;2022-07-12T13:25:15;30.10;38.10
16263;DHT22;8239;48.594;8.598;2022-07-12T13:27:43;30.10;37.50
16263;DHT22;8239;48.594;8.598;2022-07-12T13:30:13;30.30;37.70
16263;DHT22;8239;48.594;8.598;2022-07-12T13:32:40;30.60;37.90
16263;DHT22;8239;48.594;8.598;2022-07-12T13:35:09;30.90;37.60
16263;DHT22;8239;48.594;8.598;2022-07-12T13:37:37;31.20;36.50
16263;DHT22;8239;48.594;8.598;2022-07-12T13:40:06;31.10;36.30
16263;DHT22;8239;48.594;8.598;2022-07-12T13:42:44;30.90;36.40
16263;DHT22;8239;48.594;8.598;2022-07-12T13:45:14;30.60;36.50
16263;DHT22;8239;48.594;8.598;2022-07-12T13:47:42;30.50;37.20
16263;DHT22;8239;48.594;8.598;2022-07-12T13:50:11;30.80;37.80
16263;DHT22;8239;48.594;8.598;2022-07-12T13:52:39;31.10;37.30
16263;DHT22;8239;48.594;8.598;2022-07-12T13:55:07;31.10;37.30
16263;DHT22;8239;48.594;8.598;2022-07-12T13:57:35;31.30;37.00
16263;DHT22;8239;48.594;8.598;2022-07-12T14:00:06;31.60;37.30
16263;DHT22;8239;48.594;8.598;2022-07-12T14:02:36;31.50;37.10
16263;DHT22;8239;48.594;8.598;2022-07-12T14:05:05;31.50;37.10
16263;DHT22;8239;48.594;8.598;2022-07-12T14:07:32;31.70;36.70
16263;DHT22;8239;48.594;8.598;2022-07-12T14:09:59;31.90;36.40
16263;DHT22;8239;48.594;8.598;2022-07-12T14:12:27;32.00;36.40
16263;DHT22;8239;48.594;8.598;2022-07-12T14:14:54;32.10;36.20
16263;DHT22;8239;48.594;8.598;2022-07-12T14:17:44;32.20;35.80
16263;DHT22;8239;48.594;8.598;2022-07-12T14:20:14;31.80;35.40
16263;DHT22;8239;48.594;8.598;2022-07-12T14:22:41;31.30;36.00
16263;DHT22;8239;48.594;8.598;2022-07-12T14:25:09;31.00;35.90
16263;DHT22;8239;48.594;8.598;2022-07-12T14:27:37;30.80;36.40
16263;DHT22;8239;48.594;8.598;2022-07-12T14:30:05;30.30;36.40
16263;DHT22;8239;48.594;8.598;2022-07-12T14:32:33;30.20;36.50
16263;DHT22;8239;48.594;8.598;2022-07-12T14:35:02;30.20;37.60
16263;DHT22;8239;48.594;8.598;2022-07-12T14:37:29;30.50;37.10
16263;DHT22;8239;48.594;8.598;2022-07-12T14:39:56;30.80;36.90
16263;DHT22;8239;48.594;8.598;2022-07-12T14:42:23;31.00;36.00
16263;DHT22;8239;48.594;8.598;2022-07-12T14:44:50;30.90;35.70
16263;DHT22;8239;48.594;8.598;2022-07-12T14:47:17;30.90;36.20
16263;DHT22;8239;48.594;8.598;2022-07-12T14:49:45;31.10;36.30
16263;DHT22;8239;48.594;8.598;2022-07-12T14:52:13;31.30;36.50
16263;DHT22;8239;48.594;8.598;2022-07-12T14:54:41;31.40;35.70
16263;DHT22;8239;48.594;8.598;2022-07-12T14:57:08;31.40;36.00
16263;DHT22;8239;48.594;8.598;2022-07-12T14:59:35;31.20;35.30
16263;DHT22;8239;48.594;8.598;2022-07-12T15:02:03;31.20;35.40
16263;DHT22;8239;48.594;8.598;2022-07-12T15:04:30;31.30;35.70
16263;DHT22;8239;48.594;8.598;2022-07-12T15:06:57;31.30;36.10
16263;DHT22;8239;48.594;8.598;2022-07-12T15:09:25;31.20;36.30
16263;DHT22;8239;48.594;8.598;2022-07-12T15:11:52;30.90;36.70
16263;DHT22;8239;48.594;8.598;2022-07-12T15:14:19;30.80;37.30
16263;DHT22;8239;48.594;8.598;2022-07-12T15:16:46;30.70;36.80
16263;DHT22;8239;48.594;8.598;2022-07-12T15:19:13;30.70;36.50
16263;DHT22;8239;48.594;8.598;2022-07-12T15:21:41;30.50;36.30
16263;DHT22;8239;48.594;8.598;2022-07-12T15:24:08;30.20;36.60
16263;DHT22;8239;48.594;8.598;2022-07-12T15:26:36;30.00;38.00
16263;DHT22;8239;48.594;8.598;2022-07-12T15:29:04;30.00;38.70
16263;DHT22;8239;48.594;8.598;2022-07-12T15:31:31;30.10;37.80
16263;DHT22;8239;48.594;8.598;2022-07-12T15:33:59;30.20;38.00
16263;DHT22;8239;48.594;8.598;2022-07-12T15:36:26;30.30;37.60
16263;DHT22;8239;48.594;8.598;2022-07-12T15:38:53;30.50;37.20
16263;DHT22;8239;48.594;8.598;2022-07-12T15:41:20;30.60;36.70
16263;DHT22;8239;48.594;8.598;2022-07-12T15:43:49;30.50;36.50
16263;DHT22;8239;48.594;8.598;2022-07-12T15:46:17;30.50;36.40
16263;DHT22;8239;48.594;8.598;2022-07-12T15:48:44;30.20;37.20
16263;DHT22;8239;48.594;8.598;2022-07-12T15:51:12;30.30;37.80
16263;DHT22;8239;48.594;8.598;2022-07-12T15:53:39;30.30;37.40
16263;DHT22;8239;48.594;8.598;2022-07-12T15:56:07;30.30;36.50
16263;DHT22;8239;48.594;8.598;2022-07-12T15:58:35;30.00;36.40